createdAt,value
2019-05-20T00:00:16.892Z,16.00
2019-05-20T00:02:45.688Z,16.00
2019-05-20T00:05:14.423Z,16.10
2019-05-20T00:07:43.063Z,16.10
2019-05-20T00:10:12.060Z,16.10
2019-05-20T00:12:41.250Z,16.10
2019-05-20T00:15:10.242Z,16.10
2019-05-20T00:17:38.970Z,16.10
2019-05-20T00:20:07.987Z,16.00
2019-05-20T00:22:36.545Z,16.10
2019-05-20T00:25:07.109Z,16.10
2019-05-20T00:27:35.807Z,16.20
2019-05-20T00:30:06.166Z,16.10
2019-05-20T00:32:41.313Z,15.90
2019-05-20T00:35:06.799Z,15.90
2019-05-20T00:37:35.489Z,15.90
2019-05-20T00:40:07.362Z,16.00
2019-05-20T00:42:37.466Z,16.00
2019-05-20T00:45:06.588Z,16.10
2019-05-20T00:47:35.238Z,16.00
2019-05-20T00:50:08.254Z,15.80
2019-05-20T00:52:36.980Z,15.80
2019-05-20T00:55:07.775Z,15.70
2019-05-20T00:57:36.687Z,15.80
2019-05-20T01:00:08.938Z,15.90
2019-05-20T01:02:37.595Z,15.90
2019-05-20T01:05:06.293Z,15.90
2019-05-20T01:07:35.370Z,16.00
2019-05-20T01:10:06.121Z,15.90
2019-05-20T01:12:34.703Z,15.90
2019-05-20T01:15:03.470Z,15.80
2019-05-20T01:17:32.057Z,15.80
2019-05-20T01:20:03.351Z,15.80
2019-05-20T01:22:31.986Z,15.80
2019-05-20T01:25:00.703Z,15.80
2019-05-20T01:27:32.081Z,15.70
2019-05-20T01:30:00.704Z,15.70
2019-05-20T01:32:29.267Z,15.60
2019-05-20T01:34:58.009Z,15.60
2019-05-20T01:37:26.542Z,15.60
2019-05-20T01:39:55.130Z,15.70
2019-05-20T01:42:25.386Z,15.70
2019-05-20T01:44:54.097Z,15.70
2019-05-20T01:47:22.655Z,15.60
2019-05-20T01:49:51.309Z,15.50
2019-05-20T01:52:21.284Z,15.60
2019-05-20T01:54:49.896Z,15.50
2019-05-20T01:57:18.518Z,15.50
2019-05-20T01:59:47.073Z,15.50
2019-05-20T02:02:15.662Z,15.40
2019-05-20T02:04:44.414Z,15.40
2019-05-20T02:07:13.200Z,15.40
2019-05-20T02:09:41.947Z,15.50
2019-05-20T02:12:11.024Z,15.40
2019-05-20T02:14:44.649Z,15.40
2019-05-20T02:17:13.238Z,15.40
2019-05-20T02:19:42.362Z,15.40
2019-05-20T02:22:11.078Z,15.30
2019-05-20T02:24:39.789Z,15.30
2019-05-20T02:27:09.972Z,15.40
2019-05-20T02:29:38.494Z,15.30
2019-05-20T02:32:07.147Z,15.30
2019-05-20T02:34:35.779Z,15.30
2019-05-20T02:37:04.570Z,15.30
2019-05-20T02:39:36.252Z,15.30
2019-05-20T02:42:05.617Z,15.30
2019-05-20T02:44:34.209Z,15.20
2019-05-20T02:47:02.993Z,15.30
2019-05-20T02:49:31.678Z,15.30
2019-05-20T02:52:00.304Z,15.30
2019-05-20T02:54:29.110Z,15.30
2019-05-20T02:56:57.931Z,15.20
2019-05-20T02:59:26.642Z,15.40
2019-05-20T03:01:55.363Z,15.40
2019-05-20T03:04:24.144Z,15.40
2019-05-20T03:06:52.696Z,15.40
2019-05-20T03:09:21.405Z,15.50
2019-05-20T03:11:50.123Z,15.50
2019-05-20T03:14:18.849Z,15.50
2019-05-20T03:16:47.513Z,15.60
2019-05-20T03:19:16.182Z,15.50
2019-05-20T03:21:45.075Z,15.60
2019-05-20T03:24:13.758Z,15.60
2019-05-20T03:26:42.429Z,15.70
2019-05-20T03:29:11.114Z,15.70
2019-05-20T03:31:39.818Z,15.60
2019-05-20T03:34:08.451Z,15.60
2019-05-20T03:36:37.884Z,15.50
2019-05-20T03:39:07.082Z,15.50
2019-05-20T03:41:37.205Z,15.50
2019-05-20T03:44:06.223Z,15.50
2019-05-20T03:46:37.971Z,15.50
2019-05-20T03:49:06.604Z,15.50
2019-05-20T03:51:35.323Z,15.50
2019-05-20T03:54:03.956Z,15.50
2019-05-20T03:56:36.817Z,15.50
2019-05-20T03:59:05.519Z,15.50
2019-05-20T04:01:34.134Z,15.50
2019-05-20T04:04:02.841Z,15.50
2019-05-20T04:06:31.453Z,15.50
2019-05-20T04:09:00.014Z,15.40
2019-05-20T04:11:29.307Z,15.40
2019-05-20T04:14:00.742Z,15.50
2019-05-20T04:16:29.450Z,15.50
2019-05-20T04:18:57.983Z,15.50
2019-05-20T04:21:26.683Z,15.40
2019-05-20T04:23:55.519Z,15.30
2019-05-20T04:26:24.138Z,15.30
2019-05-20T04:28:52.863Z,15.30
2019-05-20T04:31:21.503Z,15.40
2019-05-20T04:33:51.234Z,15.40
2019-05-20T04:36:22.827Z,15.40
2019-05-20T04:38:56.049Z,15.50
2019-05-20T04:44:05.126Z,15.50
2019-05-20T04:46:33.876Z,15.40
2019-05-20T04:49:02.401Z,15.50
2019-05-20T04:51:31.032Z,15.50
2019-05-20T04:53:59.681Z,15.60
2019-05-20T04:56:29.381Z,15.50
2019-05-20T04:58:58.079Z,15.50
2019-05-20T05:01:28.270Z,15.40
2019-05-20T05:03:56.865Z,15.40
2019-05-20T05:06:25.491Z,15.40
2019-05-20T05:08:54.074Z,15.50
2019-05-20T05:11:25.638Z,15.50
2019-05-20T05:13:54.326Z,15.50
2019-05-20T05:16:23.499Z,15.50
2019-05-20T05:18:53.655Z,15.50
2019-05-20T05:21:22.356Z,15.60
2019-05-20T05:23:58.843Z,15.70
2019-05-20T05:26:21.447Z,15.80
2019-05-20T05:28:50.001Z,15.70
2019-05-20T05:31:18.687Z,15.80
2019-05-20T05:33:48.268Z,15.70
2019-05-20T05:36:16.839Z,15.80
2019-05-20T05:38:45.488Z,15.90
2019-05-20T05:41:14.097Z,15.90
2019-05-20T05:43:42.658Z,15.90
2019-05-20T05:46:13.867Z,16.00
2019-05-20T05:48:42.566Z,15.90
2019-05-20T05:51:11.173Z,15.80
2019-05-20T05:53:39.751Z,15.70
2019-05-20T05:56:09.254Z,15.60
2019-05-20T05:58:37.821Z,15.70
2019-05-20T06:01:08.876Z,15.70
2019-05-20T06:03:37.450Z,15.80
2019-05-20T06:06:12.212Z,15.70
2019-05-20T06:08:36.478Z,15.70
2019-05-20T06:11:05.211Z,15.80
2019-05-20T06:13:33.854Z,15.90
2019-05-20T06:16:02.616Z,15.70
2019-05-20T06:18:32.179Z,15.70
2019-05-20T06:21:03.909Z,15.80
2019-05-20T06:23:32.490Z,15.80
2019-05-20T06:26:01.186Z,15.70
2019-05-20T06:28:29.767Z,15.80
2019-05-20T06:30:58.612Z,15.80
2019-05-20T06:33:27.387Z,16.00
2019-05-20T06:35:56.312Z,16.10
2019-05-20T06:41:53.963Z,16.00
2019-05-20T06:44:22.518Z,15.80
2019-05-20T06:46:52.665Z,15.90
2019-05-20T06:49:23.610Z,15.90
2019-05-20T06:51:52.307Z,15.90
2019-05-20T06:54:20.906Z,16.10
2019-05-20T06:56:49.778Z,16.20
2019-05-20T06:59:18.343Z,16.10
2019-05-20T07:01:48.747Z,16.20
2019-05-20T07:04:17.557Z,16.10
2019-05-20T07:06:47.422Z,15.90
2019-05-20T07:09:16.291Z,15.90
2019-05-20T07:11:52.211Z,15.90
2019-05-20T07:14:15.267Z,16.00
2019-05-20T07:16:43.891Z,15.90
2019-05-20T07:19:12.475Z,16.00
2019-05-20T07:21:41.111Z,16.00
2019-05-20T07:24:12.817Z,16.00
2019-05-20T07:26:41.455Z,15.90
2019-05-20T07:29:10.185Z,15.90
2019-05-20T07:31:39.074Z,16.00
2019-05-20T07:34:07.785Z,16.00
2019-05-20T07:36:36.354Z,16.00
2019-05-20T07:39:06.772Z,16.00
2019-05-20T07:41:35.492Z,16.20
2019-05-20T07:44:04.323Z,16.60
2019-05-20T07:46:34.229Z,17.00
2019-05-20T07:49:03.320Z,17.50
2019-05-20T07:51:32.930Z,17.90
2019-05-20T07:54:03.024Z,18.00
2019-05-20T07:56:34.758Z,17.80
2019-05-20T07:59:05.743Z,17.80
2019-05-20T08:01:34.504Z,17.80
2019-05-20T08:04:03.247Z,17.70
2019-05-20T08:06:32.002Z,17.90
2019-05-20T08:09:00.812Z,17.90
2019-05-20T08:11:29.565Z,17.80
2019-05-20T08:13:58.343Z,17.70
2019-05-20T08:16:27.104Z,17.70
2019-05-20T08:18:55.898Z,17.80
2019-05-20T08:21:24.665Z,17.90
2019-05-20T08:23:53.349Z,18.00
2019-05-20T08:26:22.066Z,18.10
2019-05-20T08:28:50.771Z,18.50
2019-05-20T08:31:20.205Z,18.80
2019-05-20T08:33:48.863Z,19.00
2019-05-20T08:36:17.554Z,19.00
2019-05-20T08:38:46.240Z,18.90
2019-05-20T08:41:14.931Z,19.20
2019-05-20T08:43:43.502Z,19.30
2019-05-20T08:46:21.375Z,19.50
2019-05-20T08:48:49.930Z,19.70
2019-05-20T08:51:18.529Z,20.30
2019-05-20T08:53:47.163Z,20.10
2019-05-20T08:56:15.840Z,20.30
2019-05-20T08:58:45.492Z,20.80
2019-05-20T09:01:14.033Z,21.20
2019-05-20T09:03:42.677Z,21.40
2019-05-20T09:06:11.250Z,21.10
2019-05-20T09:08:39.831Z,20.60
2019-05-20T09:11:08.571Z,20.50
2019-05-20T09:13:37.212Z,20.10
2019-05-20T09:16:08.559Z,20.40
2019-05-20T09:18:37.225Z,20.70
2019-05-20T09:21:05.934Z,20.60
2019-05-20T09:23:34.645Z,21.00
2019-05-20T09:26:03.451Z,20.80
2019-05-20T09:28:32.163Z,20.90
2019-05-20T09:31:02.606Z,21.20
2019-05-20T09:33:31.368Z,21.00
2019-05-20T09:36:00.189Z,21.10
2019-05-20T09:38:28.877Z,21.50
2019-05-20T09:40:57.536Z,21.20
2019-05-20T09:43:26.201Z,21.10
2019-05-20T09:46:06.214Z,21.00
2019-05-20T09:48:25.521Z,20.70
2019-05-20T09:50:54.392Z,20.60
2019-05-20T09:53:23.782Z,20.60
2019-05-20T09:55:52.589Z,20.70
2019-05-20T09:58:21.423Z,20.70
2019-05-20T10:00:50.113Z,20.40
2019-05-20T10:03:18.862Z,20.40
2019-05-20T10:05:47.601Z,20.40
2019-05-20T10:08:16.251Z,20.40
2019-05-20T10:10:45.087Z,20.50
2019-05-20T10:13:13.703Z,20.70
2019-05-20T10:15:42.454Z,20.70
2019-05-20T10:18:11.112Z,20.80
2019-05-20T10:20:39.898Z,20.90
2019-05-20T10:23:08.513Z,20.70
2019-05-20T10:25:37.182Z,20.70
2019-05-20T10:28:05.973Z,20.70
2019-05-20T10:30:34.788Z,20.90
2019-05-20T10:33:09.603Z,20.70
2019-05-20T10:35:36.886Z,20.90
2019-05-20T10:38:05.571Z,21.00
2019-05-20T10:40:34.305Z,20.90
2019-05-20T10:43:02.991Z,21.00
2019-05-20T10:45:31.937Z,21.10
2019-05-20T10:48:00.535Z,21.00
2019-05-20T10:50:29.187Z,20.80
2019-05-20T10:52:57.776Z,20.70
2019-05-20T10:55:27.241Z,20.50
2019-05-20T10:57:55.890Z,20.50
2019-05-20T11:00:24.994Z,20.50
2019-05-20T11:02:53.777Z,20.50
2019-05-20T11:05:22.487Z,20.50
2019-05-20T11:07:51.593Z,20.40
2019-05-20T11:10:20.656Z,20.70
2019-05-20T11:12:49.400Z,20.70
2019-05-20T11:15:18.325Z,20.80
2019-05-20T11:17:47.366Z,20.80
2019-05-20T11:20:16.487Z,20.80
2019-05-20T11:22:45.126Z,21.10
2019-05-20T11:25:14.337Z,21.10
2019-05-20T11:27:42.989Z,21.50
2019-05-20T11:30:12.694Z,21.70
2019-05-20T11:32:41.400Z,21.70
2019-05-20T11:35:10.649Z,21.60
2019-05-20T11:37:39.350Z,21.70
2019-05-20T11:40:12.313Z,21.60
2019-05-20T11:42:41.448Z,22.00
2019-05-20T11:45:10.621Z,21.70
2019-05-20T11:47:39.218Z,21.60
2019-05-20T11:50:08.837Z,21.30
2019-05-20T11:52:37.617Z,21.20
2019-05-20T11:55:07.023Z,20.80
2019-05-20T11:57:35.788Z,20.80
2019-05-20T12:00:09.653Z,20.90
2019-05-20T12:02:38.345Z,20.90
2019-05-20T12:05:07.928Z,20.90
2019-05-20T12:07:37.307Z,21.00
2019-05-20T12:10:07.412Z,21.10
2019-05-20T12:12:35.983Z,21.90
2019-05-20T12:15:07.658Z,22.40
2019-05-20T12:17:37.192Z,22.70
2019-05-20T12:20:10.445Z,23.40
2019-05-20T12:22:40.059Z,23.20
2019-05-20T12:25:10.818Z,23.50
2019-05-20T12:27:39.522Z,22.90
2019-05-20T12:30:08.578Z,22.60
2019-05-20T12:32:37.229Z,22.90
2019-05-20T12:35:07.787Z,23.70
2019-05-20T12:37:38.663Z,24.50
2019-05-20T12:40:08.638Z,25.90
2019-05-20T12:42:37.900Z,25.00
2019-05-20T12:45:08.105Z,24.90
2019-05-20T12:47:37.396Z,23.90
2019-05-20T12:50:08.374Z,23.90
2019-05-20T12:52:37.115Z,24.00
2019-05-20T12:55:09.532Z,23.90
2019-05-20T12:57:37.100Z,23.80
2019-05-20T13:00:07.848Z,24.00
2019-05-20T13:02:36.447Z,23.80
2019-05-20T13:05:09.018Z,24.00
2019-05-20T13:07:37.770Z,24.60
2019-05-20T13:10:26.816Z,25.10
2019-05-20T13:12:38.645Z,24.40
2019-05-20T13:15:09.534Z,23.90
2019-05-20T13:17:42.896Z,23.90
2019-05-20T13:20:10.794Z,23.30
2019-05-20T13:22:39.500Z,23.20
2019-05-20T13:25:08.148Z,23.20
2019-05-20T13:27:36.791Z,22.90
2019-05-20T13:30:08.237Z,23.10
2019-05-20T13:32:36.897Z,24.10
2019-05-20T13:35:07.275Z,25.10
2019-05-20T13:37:39.337Z,25.70
2019-05-20T13:40:08.618Z,25.80
2019-05-20T13:42:37.360Z,26.10
2019-05-20T13:45:07.018Z,25.40
2019-05-20T13:47:36.424Z,25.70
2019-05-20T13:50:07.319Z,24.90
2019-05-20T13:52:36.083Z,25.20
2019-05-20T13:55:04.955Z,25.80
2019-05-20T13:57:33.624Z,25.50
2019-05-20T14:00:02.244Z,24.90
2019-05-20T14:02:30.948Z,24.60
2019-05-20T14:05:01.045Z,25.90
2019-05-20T14:07:29.759Z,26.50
2019-05-20T14:09:58.473Z,26.30
2019-05-20T14:12:28.604Z,24.70
2019-05-20T14:14:57.259Z,24.90
2019-05-20T14:17:25.955Z,25.70
2019-05-20T14:19:54.581Z,26.90
2019-05-20T14:22:23.300Z,26.90
2019-05-20T14:24:53.355Z,27.90
2019-05-20T14:27:22.021Z,29.10
2019-05-20T14:29:50.587Z,29.40
2019-05-20T14:32:20.837Z,29.00
2019-05-20T14:34:49.673Z,29.00
2019-05-20T14:37:18.252Z,29.80
2019-05-20T14:39:46.922Z,30.00
2019-05-20T14:42:15.714Z,29.50
2019-05-20T14:44:44.263Z,28.80
2019-05-20T14:47:12.817Z,29.60
2019-05-20T14:49:41.536Z,28.90
2019-05-20T14:52:10.246Z,27.40
2019-05-20T14:54:43.033Z,27.50
2019-05-20T14:57:11.782Z,28.00
2019-05-20T14:59:40.327Z,28.20
2019-05-20T15:02:09.020Z,28.50
2019-05-20T15:04:39.130Z,28.50
2019-05-20T15:07:07.771Z,28.80
2019-05-20T15:09:36.428Z,30.40
2019-05-20T15:12:08.011Z,30.70
2019-05-20T15:14:36.737Z,30.60
2019-05-20T15:17:07.097Z,30.40
2019-05-20T15:19:35.791Z,31.00
2019-05-20T15:22:05.366Z,30.10
2019-05-20T15:24:33.975Z,30.10
2019-05-20T15:27:02.838Z,31.30
2019-05-20T15:29:31.425Z,31.70
2019-05-20T15:32:00.154Z,31.40
2019-05-20T15:34:28.676Z,31.70
2019-05-20T15:36:57.513Z,31.30
2019-05-20T15:39:26.317Z,32.20
2019-05-20T15:41:55.074Z,32.20
2019-05-20T15:44:23.682Z,30.70
2019-05-20T15:46:52.346Z,29.00
2019-05-20T15:49:21.031Z,27.60
2019-05-20T15:51:49.750Z,27.00
2019-05-20T15:54:18.388Z,26.60
2019-05-20T15:56:47.114Z,26.60
2019-05-20T15:59:15.807Z,26.70
2019-05-20T16:01:45.386Z,26.90
2019-05-20T16:04:14.189Z,27.40
2019-05-20T16:06:42.908Z,28.20
2019-05-20T16:09:16.649Z,28.90
2019-05-20T16:11:42.329Z,29.50
2019-05-20T16:14:11.000Z,30.20
2019-05-20T16:16:39.635Z,30.50
2019-05-20T16:19:08.297Z,30.80
2019-05-20T16:21:36.969Z,31.00
2019-05-20T16:24:06.190Z,31.70
2019-05-20T16:26:34.904Z,30.90
2019-05-20T16:29:03.815Z,31.00
2019-05-20T16:31:32.549Z,30.40
2019-05-20T16:34:01.114Z,30.80
2019-05-20T16:36:29.750Z,30.60
2019-05-20T16:38:58.330Z,31.40
2019-05-20T16:41:26.967Z,31.00
2019-05-20T16:43:55.663Z,31.00
2019-05-20T16:46:24.306Z,31.40
2019-05-20T16:48:52.989Z,31.20
2019-05-20T16:51:22.477Z,31.90
2019-05-20T16:53:51.454Z,31.40
2019-05-20T16:56:20.157Z,30.40
2019-05-20T16:58:48.974Z,30.40
2019-05-20T17:01:17.667Z,31.20
2019-05-20T17:03:46.391Z,31.10
2019-05-20T17:06:17.951Z,30.40
2019-05-20T17:08:47.414Z,30.50
2019-05-20T17:11:16.134Z,31.70
2019-05-20T17:13:44.735Z,32.30
2019-05-20T17:16:13.327Z,32.20
2019-05-20T17:18:41.979Z,31.80
2019-05-20T17:21:10.698Z,31.80
2019-05-20T17:23:39.335Z,31.30
2019-05-20T17:26:08.077Z,30.90
2019-05-20T17:28:36.664Z,30.60
2019-05-20T17:31:05.370Z,30.00
2019-05-20T17:33:34.075Z,30.00
2019-05-20T17:36:02.898Z,29.90
2019-05-20T17:38:31.572Z,29.50
2019-05-20T17:41:00.247Z,28.90
2019-05-20T17:43:28.922Z,27.40
2019-05-20T17:45:57.734Z,26.80
2019-05-20T17:48:26.357Z,26.50
2019-05-20T17:50:55.117Z,26.30
2019-05-20T17:53:23.758Z,26.40
2019-05-20T17:55:53.377Z,26.60
2019-05-20T17:58:22.065Z,26.60
2019-05-20T18:00:50.905Z,26.40
2019-05-20T18:03:19.577Z,25.70
2019-05-20T18:05:48.366Z,25.10
2019-05-20T18:08:17.055Z,24.70
2019-05-20T18:10:46.138Z,24.20
2019-05-20T18:13:14.801Z,23.90
2019-05-20T18:15:43.460Z,23.70
2019-05-20T18:18:12.044Z,23.50
2019-05-20T18:20:40.792Z,23.70
2019-05-20T18:23:09.354Z,23.60
2019-05-20T18:25:37.857Z,23.30
2019-05-20T18:28:06.580Z,23.40
2019-05-20T18:30:35.415Z,23.30
2019-05-20T18:33:04.214Z,22.90
2019-05-20T18:35:33.305Z,22.90
2019-05-20T18:38:02.439Z,22.90
2019-05-20T18:40:31.151Z,22.70
2019-05-20T18:42:59.710Z,22.60
2019-05-20T18:45:28.281Z,22.70
2019-05-20T18:47:56.906Z,22.80
2019-05-20T18:50:25.438Z,22.90
2019-05-20T18:52:54.109Z,22.90
2019-05-20T18:55:22.831Z,22.70
2019-05-20T18:57:51.510Z,22.70
2019-05-20T19:00:20.626Z,22.70
2019-05-20T19:02:49.347Z,22.70
2019-05-20T19:05:18.235Z,22.80
2019-05-20T19:07:47.702Z,22.90
2019-05-20T19:10:16.586Z,23.10
2019-05-20T19:12:45.305Z,22.90
2019-05-20T19:15:15.095Z,22.90
2019-05-20T19:17:43.754Z,22.90
2019-05-20T19:20:12.486Z,22.60
2019-05-20T19:22:41.776Z,22.50
2019-05-20T19:25:10.592Z,22.40
2019-05-20T19:27:39.238Z,22.20
2019-05-20T19:30:08.735Z,22.00
2019-05-20T19:32:37.439Z,21.80
2019-05-20T19:35:07.673Z,21.80
2019-05-20T19:37:36.442Z,21.70
2019-05-20T19:40:07.047Z,21.50
2019-05-20T19:42:37.380Z,21.50
2019-05-20T19:45:08.263Z,21.40
2019-05-20T19:47:36.845Z,21.40
2019-05-20T19:50:07.367Z,21.40
2019-05-20T19:52:35.986Z,21.30
2019-05-20T19:55:06.111Z,21.10
2019-05-20T19:57:34.894Z,21.10
2019-05-20T20:00:05.305Z,20.90
2019-05-20T20:02:33.970Z,20.90
2019-05-20T20:05:02.928Z,20.80
2019-05-20T20:07:31.626Z,20.80
2019-05-20T20:10:00.329Z,20.90
2019-05-20T20:12:29.004Z,20.70
2019-05-20T20:14:57.726Z,20.60
2019-05-20T20:17:26.451Z,20.50
2019-05-20T20:19:58.105Z,20.30
2019-05-20T20:22:25.551Z,20.10
2019-05-20T20:24:54.190Z,20.00
2019-05-20T20:27:23.035Z,19.90
2019-05-20T20:29:51.677Z,19.90
2019-05-20T20:32:36.413Z,19.90
2019-05-20T20:34:50.682Z,19.80
2019-05-20T20:37:19.253Z,19.70
2019-05-20T20:39:48.175Z,19.70
2019-05-20T20:42:16.817Z,19.70
2019-05-20T20:44:45.526Z,19.60
2019-05-20T20:47:14.191Z,19.50
2019-05-20T20:49:43.204Z,19.50
2019-05-20T20:52:12.040Z,19.40
2019-05-20T20:54:40.602Z,19.30
2019-05-20T20:57:09.254Z,19.40
2019-05-20T20:59:37.930Z,19.30
2019-05-20T21:02:06.662Z,19.20
2019-05-20T21:04:35.324Z,19.10
2019-05-20T21:07:03.959Z,19.00
2019-05-20T21:09:35.601Z,19.00
2019-05-20T21:12:05.169Z,18.90
2019-05-20T21:14:33.891Z,19.00
2019-05-20T21:17:02.567Z,18.90
2019-05-20T21:19:33.743Z,18.80
2019-05-20T21:22:02.417Z,18.70
2019-05-20T21:24:31.067Z,18.60
2019-05-20T21:27:02.929Z,18.60
2019-05-20T21:29:32.622Z,18.50
2019-05-20T21:32:03.018Z,18.40
2019-05-20T21:34:31.884Z,18.40
2019-05-20T21:37:02.274Z,18.40
2019-05-20T21:39:33.890Z,18.30
2019-05-20T21:42:02.621Z,18.20
2019-05-20T21:44:31.322Z,18.20
2019-05-20T21:47:00.044Z,18.10
2019-05-20T21:49:28.722Z,18.10
2019-05-20T21:51:57.425Z,18.10
2019-05-20T21:54:26.051Z,18.10
2019-05-20T21:56:54.784Z,18.00
2019-05-20T21:59:23.497Z,18.00
2019-05-20T22:01:52.347Z,17.90
2019-05-20T22:04:20.897Z,17.90
2019-05-20T22:06:49.607Z,17.90
2019-05-20T22:09:18.175Z,17.80
2019-05-20T22:11:48.269Z,17.70
2019-05-20T22:14:16.932Z,17.60
2019-05-20T22:16:47.210Z,17.40
2019-05-20T22:19:16.036Z,17.40
2019-05-20T22:21:46.286Z,17.30
2019-05-20T22:24:14.937Z,17.30
2019-05-20T22:26:43.685Z,17.20
2019-05-20T22:29:12.375Z,17.20
2019-05-20T22:31:41.064Z,17.20
2019-05-20T22:34:09.714Z,17.00
2019-05-20T22:36:38.347Z,17.00
2019-05-20T22:39:08.449Z,17.00
2019-05-20T22:41:37.180Z,17.00
2019-05-20T22:44:05.824Z,17.00
2019-05-20T22:46:36.666Z,17.10
2019-05-20T22:49:05.389Z,17.00
2019-05-20T22:51:37.284Z,17.00
2019-05-20T22:54:06.020Z,17.00
2019-05-20T22:56:34.656Z,16.90
2019-05-20T22:59:03.351Z,17.00
2019-05-20T23:01:31.958Z,16.90
2019-05-20T23:04:00.546Z,16.90
2019-05-20T23:06:29.215Z,16.90
2019-05-20T23:08:57.982Z,16.70
2019-05-20T23:11:26.613Z,16.50
2019-05-20T23:13:55.193Z,16.50
2019-05-20T23:16:23.932Z,16.40
2019-05-20T23:18:52.562Z,16.20
2019-05-20T23:21:24.061Z,16.40
2019-05-20T23:23:55.354Z,16.20
2019-05-20T23:26:23.950Z,15.90
2019-05-20T23:28:58.675Z,15.80
2019-05-20T23:31:27.600Z,15.70
2019-05-20T23:34:10.359Z,15.70
2019-05-20T23:36:26.501Z,15.70
2019-05-20T23:38:55.094Z,15.60
2019-05-20T23:41:23.676Z,15.50
2019-05-20T23:43:52.343Z,15.50
2019-05-20T23:46:20.954Z,15.50
2019-05-20T23:48:49.601Z,15.50
2019-05-20T23:51:18.248Z,15.50
2019-05-20T23:53:46.906Z,15.40
2019-05-20T23:56:15.557Z,15.40
2019-05-20T23:58:44.321Z,15.30
